Aérodrome :
LOGIN :

S'inscrire | Disclaimer

   EN    FR    IT 

 










Légende :    VFR   VFR Marginal   IFR   IFR Intensif   IFR Très Intensif
Visi : 
Plafond : 
>= 8 km
>= 3000ft
5 à 8 km
1000 à 3000 ft
1500m à 5 km
500 à 1000 ft
800 à 1500m
200 à 500 ft
< 800m
< 200 ft
Symboles :   Orages  Brouillard  Fortes neiges  Fortes précipitations  Vent > 20 kt
SIGMETs :   Divers  Orages  Givrage  Turbulence  Onde Orograph.  Cendres Volcan.







- Altitude de l'aérodrome : 117 ft
- Code IATA : NWI
- Voir les cartes d'approche


EGSH - Norwich

DERNIER METAR :
  • 200850Z 20002KT CAVOK 01/00 Q1001 NOSIG

METARs EXPIRÉS :
  • 200820Z 20004KT CAVOK 01/00 Q1001 NOSIG
  • 200750Z 20005KT CAVOK 00/M00 Q1001
  • 200720Z 19006KT CAVOK 01/00 Q1002 NOSIG
  • 200650Z 20007KT CAVOK 01/00 Q1002 NOSIG
  • 200620Z 20006KT CAVOK 00/M00 Q1002 NOSIG

TAF TAF EGSH
Valide du 20 à 09h jusqu'au 20 à 18h UTC


200803Z 2009/2018 21007KT 9999 FEW030
PROB30
TEMPO 2010/2015 6000 RA BKN010
ATIS : +44 1603 420 640
Pas de NOTAMs connus pour ce terrain.
2 SIGMETs publiés pour la FIR London (EGTT) :
 
Givrage fort
EGTT SIGMET 03 VALID 200900/201100 EGRR
EGTT LONDON FIR SEV ICE OBS WI N5153 E00218 - N5130 E00200 - N5106 E00155 - N5040 E00128 - N5027 E00054 - N5238 W00530 - N5426 W00530 - N5153 E00218 FL020/120 MOV ENE 05KT NC=
Turbulence forte
EGTT SIGMET 02 VALID 200700/201100 EGRR
EGTT LONDON FIR SEV TURB FCST SW OF LINE N5040 W00800 - N4956 W00220 SFC/FL060 MOV ESE 30KT NC=



MET'MAP, la Météo Aéronautique d'un coup d'oeil ! - Copyright ORBIFLY Décembre 2007 - Disclaimer

ORBIFLY MET'MAP TEAM :

Programmation & Développement : Alexandra Zaïnal
Conception & Développement : Baudouin d'Aumeries
Co-Programmation & Développement : Marc-Olivier Méhu
Soutien technique & logistique : Manuel Goepfert

Contact : metmap@orbifly.com




SOURCES & CREDITS :

   NOAA